createdAt,value
2022-10-05T00:02:26.272Z,100.00
2022-10-05T00:04:55.585Z,100.00
2022-10-05T00:07:24.317Z,100.00
2022-10-05T00:09:59.075Z,100.00
2022-10-05T00:12:28.208Z,100.00
2022-10-05T00:15:00.907Z,100.00
2022-10-05T00:17:30.143Z,100.00
2022-10-05T00:19:57.005Z,100.00
2022-10-05T00:22:31.884Z,100.00
2022-10-05T00:25:01.945Z,100.00
2022-10-05T00:27:36.124Z,100.00
2022-10-05T00:30:13.357Z,100.00
2022-10-05T00:32:39.938Z,100.00
2022-10-05T00:35:07.001Z,100.00
2022-10-05T00:37:33.681Z,100.00
2022-10-05T00:40:00.325Z,100.00
2022-10-05T00:42:51.862Z,100.00
2022-10-05T00:45:27.358Z,100.00
2022-10-05T00:48:12.535Z,100.00
2022-10-05T00:51:02.972Z,100.00
2022-10-05T00:54:02.264Z,100.00
2022-10-05T00:56:53.258Z,100.00
2022-10-05T00:59:25.692Z,100.00
2022-10-05T01:02:18.435Z,100.00
2022-10-05T01:04:55.899Z,100.00
2022-10-05T01:07:53.216Z,100.00
2022-10-05T01:10:28.912Z,100.00
2022-10-05T01:13:08.701Z,100.00
2022-10-05T01:15:51.640Z,100.00
2022-10-05T01:18:56.453Z,99.95
2022-10-05T01:21:25.879Z,99.12
2022-10-05T01:24:16.882Z,98.56
2022-10-05T01:27:11.491Z,99.60
2022-10-05T01:30:02.735Z,100.00
2022-10-05T01:32:42.921Z,100.00
2022-10-05T01:35:30.311Z,100.00
2022-10-05T01:38:11.894Z,100.00
2022-10-05T01:41:22.853Z,100.00
2022-10-05T01:44:06.491Z,100.00
2022-10-05T01:46:43.769Z,100.00
2022-10-05T01:49:46.201Z,100.00
2022-10-05T01:52:32.164Z,100.00
2022-10-05T01:55:14.137Z,100.00
2022-10-05T01:57:54.176Z,100.00
2022-10-05T02:00:20.993Z,99.62
2022-10-05T02:02:52.397Z,99.87
2022-10-05T02:05:27.773Z,100.00
2022-10-05T02:08:01.723Z,100.00
2022-10-05T02:10:37.044Z,100.00
2022-10-05T02:13:15.506Z,99.45
2022-10-05T02:15:52.861Z,98.08
2022-10-05T02:18:31.501Z,98.70
2022-10-05T02:21:02.224Z,100.00
2022-10-05T02:23:33.580Z,100.00
2022-10-05T02:26:01.409Z,100.00
2022-10-05T02:28:44.025Z,100.00
2022-10-05T02:31:14.096Z,100.00
2022-10-05T02:33:40.658Z,100.00
2022-10-05T02:36:17.074Z,100.00
2022-10-05T02:38:48.821Z,100.00
2022-10-05T02:41:34.042Z,100.00
2022-10-05T02:44:24.283Z,100.00
2022-10-05T02:47:05.107Z,100.00
2022-10-05T02:49:44.884Z,100.00
2022-10-05T02:52:26.789Z,100.00
2022-10-05T02:55:13.653Z,100.00
2022-10-05T02:57:45.672Z,100.00
2022-10-05T03:00:18.070Z,100.00
2022-10-05T03:03:08.370Z,100.00
2022-10-05T03:05:47.034Z,100.00
2022-10-05T03:08:24.917Z,100.00
2022-10-05T03:11:04.343Z,100.00
2022-10-05T03:13:36.848Z,100.00
2022-10-05T03:16:26.559Z,100.00
2022-10-05T03:18:59.159Z,100.00
2022-10-05T03:21:46.042Z,100.00
2022-10-05T03:24:31.538Z,100.00
2022-10-05T03:27:09.801Z,100.00
2022-10-05T03:29:47.506Z,100.00
2022-10-05T03:32:47.699Z,100.00
2022-10-05T03:35:34.789Z,100.00
2022-10-05T03:38:19.487Z,100.00
2022-10-05T03:40:47.000Z,100.00
2022-10-05T03:43:34.281Z,100.00
2022-10-05T03:46:11.800Z,100.00
2022-10-05T03:48:56.663Z,100.00
2022-10-05T03:51:31.202Z,100.00
2022-10-05T03:54:09.988Z,100.00
2022-10-05T03:56:46.185Z,100.00
2022-10-05T03:59:20.608Z,100.00
2022-10-05T04:02:01.318Z,100.00
2022-10-05T04:04:37.293Z,100.00
2022-10-05T04:07:06.206Z,100.00
2022-10-05T04:09:37.371Z,100.00
2022-10-05T04:12:19.718Z,100.00
2022-10-05T04:14:51.050Z,100.00
2022-10-05T04:17:27.603Z,100.00
2022-10-05T04:20:06.167Z,100.00
2022-10-05T04:22:46.048Z,100.00
2022-10-05T04:25:22.658Z,100.00
2022-10-05T04:28:16.038Z,100.00
2022-10-05T04:30:46.985Z,100.00
2022-10-05T04:33:15.884Z,100.00
2022-10-05T04:36:02.795Z,100.00
2022-10-05T04:38:35.408Z,100.00
2022-10-05T04:41:30.326Z,100.00
2022-10-05T04:44:10.252Z,100.00
2022-10-05T04:46:47.087Z,100.00
2022-10-05T04:49:35.146Z,100.00
2022-10-05T04:52:32.788Z,100.00
2022-10-05T04:55:27.322Z,100.00
2022-10-05T04:58:17.076Z,100.00
2022-10-05T05:01:12.347Z,100.00
2022-10-05T05:03:58.035Z,100.00
2022-10-05T05:06:37.642Z,100.00
2022-10-05T05:09:21.238Z,100.00
2022-10-05T05:12:18.446Z,100.00
2022-10-05T05:15:22.533Z,100.00
2022-10-05T05:18:17.125Z,100.00
2022-10-05T05:20:57.126Z,100.00
2022-10-05T05:23:44.294Z,100.00
2022-10-05T05:26:29.489Z,100.00
2022-10-05T05:29:02.144Z,100.00
2022-10-05T05:31:48.205Z,100.00
2022-10-05T05:34:36.930Z,100.00
2022-10-05T05:37:51.298Z,100.00
2022-10-05T05:40:17.759Z,100.00
2022-10-05T05:43:06.636Z,100.00
2022-10-05T05:45:56.629Z,100.00
2022-10-05T05:48:37.894Z,100.00
2022-10-05T05:51:10.750Z,100.00
2022-10-05T05:53:45.418Z,100.00
2022-10-05T05:56:20.931Z,100.00
2022-10-05T05:59:15.754Z,100.00
2022-10-05T06:01:47.729Z,100.00
2022-10-05T06:04:41.293Z,100.00
2022-10-05T06:07:16.123Z,100.00
2022-10-05T06:09:53.875Z,100.00
2022-10-05T06:12:30.218Z,100.00
2022-10-05T06:15:26.354Z,100.00
2022-10-05T06:17:56.327Z,100.00
2022-10-05T06:20:38.191Z,100.00
2022-10-05T06:23:14.228Z,100.00
2022-10-05T06:26:14.785Z,100.00
2022-10-05T06:28:43.210Z,100.00
2022-10-05T06:31:29.858Z,100.00
2022-10-05T06:34:19.829Z,100.00
2022-10-05T06:36:55.714Z,100.00
2022-10-05T06:40:02.152Z,100.00
2022-10-05T06:42:50.906Z,100.00
2022-10-05T06:46:00.085Z,100.00
2022-10-05T06:49:14.229Z,100.00
2022-10-05T06:52:08.198Z,100.00
2022-10-05T06:54:48.674Z,100.00
2022-10-05T06:57:31.042Z,100.00
2022-10-05T07:00:02.610Z,100.00
2022-10-05T07:02:45.257Z,100.00
2022-10-05T07:05:40.509Z,100.00
2022-10-05T07:08:19.966Z,100.00
2022-10-05T07:10:52.626Z,100.00
2022-10-05T07:13:31.397Z,100.00
2022-10-05T07:16:45.452Z,100.00
2022-10-05T07:19:37.668Z,100.00
2022-10-05T07:22:34.078Z,100.00
2022-10-05T07:25:13.234Z,100.00
2022-10-05T07:28:05.297Z,100.00
2022-10-05T07:31:00.486Z,100.00
2022-10-05T07:33:45.868Z,100.00
2022-10-05T07:36:37.198Z,100.00
2022-10-05T07:39:23.526Z,100.00
2022-10-05T07:42:03.270Z,100.00
2022-10-05T07:44:41.457Z,100.00
2022-10-05T07:47:22.360Z,100.00
2022-10-05T07:49:59.627Z,100.00
2022-10-05T07:52:42.055Z,100.00
2022-10-05T07:55:25.187Z,100.00
2022-10-05T07:58:13.928Z,100.00
2022-10-05T08:01:03.697Z,100.00
2022-10-05T08:03:43.583Z,100.00
2022-10-05T08:06:46.233Z,100.00
2022-10-05T08:09:37.155Z,100.00
2022-10-05T08:12:09.512Z,100.00
2022-10-05T08:14:54.654Z,100.00
2022-10-05T08:17:40.916Z,100.00
2022-10-05T08:20:18.696Z,100.00
2022-10-05T08:22:57.034Z,100.00
2022-10-05T08:25:47.761Z,100.00
2022-10-05T08:28:34.123Z,100.00
2022-10-05T08:31:24.883Z,100.00
2022-10-05T08:34:04.708Z,100.00
2022-10-05T08:36:40.140Z,100.00
2022-10-05T08:39:16.027Z,100.00
2022-10-05T08:42:03.585Z,100.00
2022-10-05T08:44:45.262Z,100.00
2022-10-05T08:47:40.207Z,99.95
2022-10-05T08:50:35.837Z,99.97
2022-10-05T08:53:18.184Z,100.00
2022-10-05T08:56:19.715Z,99.55
2022-10-05T08:59:16.609Z,98.56
2022-10-05T09:02:03.962Z,98.29
2022-10-05T09:04:42.630Z,99.77
2022-10-05T09:07:28.375Z,98.99
2022-10-05T09:10:25.141Z,100.00
2022-10-05T09:13:25.628Z,98.90
2022-10-05T09:16:21.308Z,97.49
2022-10-05T09:19:17.579Z,96.90
2022-10-05T09:22:21.422Z,99.08
2022-10-05T09:24:53.685Z,97.62
2022-10-05T09:27:43.325Z,96.34
2022-10-05T09:30:20.584Z,95.09
2022-10-05T09:33:08.577Z,95.16
2022-10-05T09:35:53.718Z,92.88
2022-10-05T09:38:51.487Z,94.10
2022-10-05T09:41:44.226Z,92.17
2022-10-05T09:44:11.000Z,90.58
2022-10-05T09:47:19.194Z,90.82
2022-10-05T09:49:57.638Z,89.08
2022-10-05T09:53:01.851Z,88.64
2022-10-05T09:55:47.108Z,88.97
2022-10-05T09:58:33.323Z,88.44
2022-10-05T10:01:09.586Z,88.71
2022-10-05T10:04:13.546Z,87.83
2022-10-05T10:07:04.923Z,85.77
2022-10-05T10:09:59.755Z,85.64
2022-10-05T10:12:50.003Z,85.68
2022-10-05T10:15:40.340Z,83.42
2022-10-05T10:18:27.735Z,83.27
2022-10-05T10:21:33.604Z,81.24
2022-10-05T10:24:14.055Z,81.60
2022-10-05T10:27:08.296Z,77.29
2022-10-05T10:29:57.429Z,76.90
2022-10-05T10:32:42.409Z,76.05
2022-10-05T10:35:11.927Z,74.62
2022-10-05T10:38:12.923Z,74.43
2022-10-05T10:41:06.600Z,75.06
2022-10-05T10:43:55.347Z,75.29
2022-10-05T10:46:59.559Z,73.88
2022-10-05T10:49:31.806Z,74.90
2022-10-05T10:52:17.013Z,72.54
2022-10-05T10:55:05.483Z,72.01
2022-10-05T10:57:44.143Z,71.42
2022-10-05T11:00:17.420Z,72.59
2022-10-05T11:03:05.063Z,72.60
2022-10-05T11:05:48.793Z,73.56
2022-10-05T11:08:16.045Z,73.01
2022-10-05T11:11:13.495Z,71.70
2022-10-05T11:14:27.651Z,71.42
2022-10-05T11:17:18.469Z,71.34
2022-10-05T11:20:02.953Z,70.66
2022-10-05T11:22:50.598Z,70.78
2022-10-05T11:25:27.717Z,70.68
2022-10-05T11:28:10.526Z,70.94
2022-10-05T11:31:04.955Z,69.07
2022-10-05T11:34:09.836Z,70.35
2022-10-05T11:37:13.728Z,67.91
2022-10-05T11:39:44.412Z,67.06
2022-10-05T11:42:20.255Z,67.27
2022-10-05T11:45:15.695Z,64.60
2022-10-05T11:47:45.530Z,63.35
2022-10-05T11:50:26.840Z,61.73
2022-10-05T11:53:14.468Z,60.10
2022-10-05T11:55:43.930Z,58.83
2022-10-05T11:58:23.296Z,57.75
2022-10-05T12:00:56.536Z,55.84
2022-10-05T12:03:49.595Z,57.15
2022-10-05T12:06:34.138Z,53.18
2022-10-05T12:09:04.731Z,50.29
2022-10-05T12:11:57.682Z,46.69
2022-10-05T12:14:30.112Z,48.61
2022-10-05T12:17:02.813Z,47.17
2022-10-05T12:19:36.555Z,44.73
2022-10-05T12:22:04.088Z,45.35
2022-10-05T12:24:36.833Z,46.37
2022-10-05T12:27:14.129Z,46.68
2022-10-05T12:29:44.236Z,49.22
2022-10-05T12:32:21.221Z,46.46
2022-10-05T12:34:50.651Z,47.89
2022-10-05T12:37:52.818Z,46.73
2022-10-05T12:40:36.017Z,48.39
2022-10-05T12:43:21.401Z,47.04
2022-10-05T12:45:58.912Z,46.52
2022-10-05T12:48:39.341Z,46.99
2022-10-05T12:51:05.864Z,46.74
2022-10-05T12:53:48.289Z,45.75
2022-10-05T12:56:30.831Z,45.71
2022-10-05T12:59:31.253Z,47.71
2022-10-05T13:02:06.094Z,50.82
2022-10-05T13:04:58.216Z,56.09
2022-10-05T13:07:56.752Z,59.94
2022-10-05T13:10:35.910Z,60.97
2022-10-05T13:13:35.753Z,61.13
2022-10-05T13:16:17.853Z,61.66
2022-10-05T13:19:12.308Z,61.79
2022-10-05T13:22:10.941Z,61.95
2022-10-05T13:25:00.823Z,62.74
2022-10-05T13:27:31.775Z,61.79
2022-10-05T13:30:17.087Z,62.18
2022-10-05T13:32:48.030Z,61.93
2022-10-05T13:35:38.627Z,62.27
2022-10-05T13:38:15.071Z,64.09
2022-10-05T13:40:53.761Z,59.71
2022-10-05T13:44:05.789Z,60.66
2022-10-05T13:46:49.969Z,60.07
2022-10-05T13:49:27.055Z,59.65
2022-10-05T13:52:19.875Z,60.58
2022-10-05T13:55:14.267Z,61.84
2022-10-05T13:58:06.042Z,59.87
2022-10-05T14:00:43.672Z,60.15
2022-10-05T14:03:34.961Z,61.88
2022-10-05T14:06:10.785Z,62.66
2022-10-05T14:08:51.322Z,61.08
2022-10-05T14:11:23.857Z,63.08
2022-10-05T14:13:52.102Z,61.00
2022-10-05T14:16:22.326Z,62.72
2022-10-05T14:18:58.542Z,60.78
2022-10-05T14:21:30.112Z,60.91
2022-10-05T14:24:42.351Z,60.46
2022-10-05T14:27:23.925Z,60.10
2022-10-05T14:30:08.546Z,58.50
2022-10-05T14:33:07.215Z,59.31
2022-10-05T14:35:51.716Z,58.36
2022-10-05T14:38:35.181Z,57.73
2022-10-05T14:41:07.923Z,56.00
2022-10-05T14:43:35.356Z,56.96
2022-10-05T14:46:27.241Z,56.30
2022-10-05T14:49:13.225Z,56.49
2022-10-05T14:51:42.147Z,56.47
2022-10-05T14:54:52.282Z,56.83
2022-10-05T14:57:34.107Z,57.36
2022-10-05T15:00:04.016Z,57.48
2022-10-05T15:03:04.277Z,57.31
2022-10-05T15:05:44.993Z,57.23
2022-10-05T15:08:11.431Z,57.39
2022-10-05T15:11:08.947Z,58.46
2022-10-05T15:13:42.429Z,58.14
2022-10-05T15:16:19.926Z,58.53
2022-10-05T15:19:21.174Z,58.57
2022-10-05T15:22:41.236Z,60.01
2022-10-05T15:25:22.996Z,59.43
2022-10-05T15:28:08.226Z,59.96
2022-10-05T15:30:42.914Z,60.89
2022-10-05T15:33:18.111Z,60.52
2022-10-05T15:35:44.545Z,60.64
2022-10-05T15:38:27.110Z,61.00
2022-10-05T15:41:15.725Z,61.76
2022-10-05T15:44:15.723Z,62.58
2022-10-05T15:46:56.767Z,60.62
2022-10-05T15:49:43.493Z,60.69
2022-10-05T15:52:27.389Z,58.38
2022-10-05T15:55:20.269Z,59.95
2022-10-05T15:57:59.557Z,58.99
2022-10-05T16:00:27.276Z,58.90
2022-10-05T16:03:25.242Z,60.01
2022-10-05T16:06:18.123Z,60.78
2022-10-05T16:08:58.679Z,62.64
2022-10-05T16:11:31.168Z,63.98
2022-10-05T16:15:08.289Z,63.57
2022-10-05T16:18:06.050Z,64.57
2022-10-05T16:20:38.482Z,64.73
2022-10-05T16:23:28.384Z,65.01
2022-10-05T16:26:19.410Z,64.90
2022-10-05T16:28:59.884Z,64.38
2022-10-05T16:31:37.292Z,64.46
2022-10-05T16:34:17.087Z,65.19
2022-10-05T16:36:49.074Z,64.12
2022-10-05T16:39:30.349Z,64.60
2022-10-05T16:42:06.483Z,64.63
2022-10-05T16:44:50.984Z,64.93
2022-10-05T16:47:43.153Z,63.47
2022-10-05T16:50:20.004Z,64.41
2022-10-05T16:52:54.986Z,63.49
2022-10-05T16:55:30.578Z,64.50
2022-10-05T16:57:59.759Z,63.92
2022-10-05T17:01:10.612Z,64.50
2022-10-05T17:03:54.779Z,64.51
2022-10-05T17:06:54.097Z,64.23
2022-10-05T17:09:45.948Z,66.10
2022-10-05T17:12:38.604Z,65.55
2022-10-05T17:15:30.805Z,66.64
2022-10-05T17:18:12.061Z,66.57
2022-10-05T17:20:42.482Z,69.50
2022-10-05T17:23:31.208Z,69.10
2022-10-05T17:26:33.128Z,69.24
2022-10-05T17:29:12.880Z,71.03
2022-10-05T17:32:18.554Z,70.20
2022-10-05T17:35:04.797Z,72.32
2022-10-05T17:37:38.694Z,72.23
2022-10-05T17:40:30.154Z,73.28
2022-10-05T17:43:25.606Z,73.54
2022-10-05T17:45:55.637Z,75.04
2022-10-05T17:48:42.898Z,73.81
2022-10-05T17:51:56.662Z,75.54
2022-10-05T17:54:42.995Z,74.92
2022-10-05T17:57:09.459Z,77.26
2022-10-05T17:59:55.621Z,76.75
2022-10-05T18:02:28.900Z,74.24
2022-10-05T18:05:12.066Z,75.70
2022-10-05T18:08:16.309Z,76.06
2022-10-05T18:11:16.971Z,76.19
2022-10-05T18:13:49.958Z,73.81
2022-10-05T18:16:54.184Z,74.55
2022-10-05T18:19:23.131Z,74.80
2022-10-05T18:22:06.341Z,75.22
2022-10-05T18:24:52.969Z,76.34
2022-10-05T18:27:34.904Z,77.45
2022-10-05T18:30:31.045Z,78.22
2022-10-05T18:32:57.497Z,78.83
2022-10-05T18:35:42.367Z,79.91
2022-10-05T18:38:21.927Z,78.83
2022-10-05T18:41:14.403Z,80.29
2022-10-05T18:44:00.541Z,81.76
2022-10-05T18:46:44.799Z,81.47
2022-10-05T18:49:43.700Z,80.74
2022-10-05T18:52:26.522Z,80.03
2022-10-05T18:55:32.686Z,81.42
2022-10-05T18:58:17.845Z,80.52
2022-10-05T19:01:21.912Z,81.00
2022-10-05T19:03:54.653Z,84.40
2022-10-05T19:06:26.570Z,84.55
2022-10-05T19:09:19.325Z,85.48
2022-10-05T19:12:14.213Z,85.86
2022-10-05T19:14:49.136Z,84.47
2022-10-05T19:17:18.581Z,82.70
2022-10-05T19:19:54.255Z,84.65
2022-10-05T19:22:48.742Z,83.95
2022-10-05T19:25:43.191Z,82.54
2022-10-05T19:28:20.571Z,83.56
2022-10-05T19:30:47.067Z,83.68
2022-10-05T19:33:26.618Z,85.33
2022-10-05T19:36:06.653Z,84.11
2022-10-05T19:39:01.885Z,84.49
2022-10-05T19:41:35.470Z,84.21
2022-10-05T19:44:24.186Z,84.84
2022-10-05T19:47:01.633Z,85.69
2022-10-05T19:49:43.093Z,87.62
2022-10-05T19:52:13.751Z,87.83
2022-10-05T19:54:41.748Z,89.14
2022-10-05T19:57:17.750Z,89.66
2022-10-05T19:59:48.358Z,88.60
2022-10-05T20:02:16.865Z,89.19
2022-10-05T20:04:45.741Z,89.46
2022-10-05T20:07:15.616Z,91.17
2022-10-05T20:09:59.794Z,91.26
2022-10-05T20:12:52.969Z,92.44
2022-10-05T20:15:53.124Z,92.59
2022-10-05T20:19:03.658Z,93.33
2022-10-05T20:21:39.362Z,93.08
2022-10-05T20:24:10.124Z,92.69
2022-10-05T20:27:03.572Z,92.71
2022-10-05T20:29:37.452Z,93.46
2022-10-05T20:32:15.483Z,94.78
2022-10-05T20:34:44.381Z,93.73
2022-10-05T20:37:13.237Z,94.42
2022-10-05T20:39:40.286Z,95.21
2022-10-05T20:42:07.726Z,96.17
2022-10-05T20:44:34.986Z,96.53
2022-10-05T20:47:01.652Z,96.47
2022-10-05T20:49:30.223Z,94.71
2022-10-05T20:51:58.078Z,93.63
2022-10-05T20:54:25.726Z,93.37
2022-10-05T20:56:54.776Z,92.81
2022-10-05T20:59:22.648Z,92.55
2022-10-05T21:01:49.325Z,91.70
2022-10-05T21:04:22.123Z,91.33
2022-10-05T21:06:48.899Z,90.95
2022-10-05T21:09:19.726Z,90.14
2022-10-05T21:11:50.158Z,90.29
2022-10-05T21:14:17.102Z,90.00
2022-10-05T21:16:45.765Z,89.52
2022-10-05T21:19:14.250Z,91.17
2022-10-05T21:21:45.203Z,92.11
2022-10-05T21:24:13.752Z,93.25
2022-10-05T21:26:41.695Z,94.46
2022-10-05T21:29:12.498Z,94.96
2022-10-05T21:31:40.351Z,94.11
2022-10-05T21:34:07.288Z,95.60
2022-10-05T21:36:34.564Z,95.93
2022-10-05T21:39:01.102Z,96.88
2022-10-05T21:41:27.614Z,96.17
2022-10-05T21:43:54.207Z,95.73
2022-10-05T21:46:25.267Z,95.86
2022-10-05T21:48:52.814Z,96.02
2022-10-05T21:51:20.544Z,95.88
2022-10-05T21:53:51.626Z,96.86
2022-10-05T21:56:22.248Z,96.87
2022-10-05T21:58:50.330Z,96.90
2022-10-05T22:01:22.275Z,97.21
2022-10-05T22:03:49.227Z,96.25
2022-10-05T22:06:15.747Z,96.82
2022-10-05T22:08:42.206Z,98.43
2022-10-05T22:11:15.284Z,97.59
2022-10-05T22:13:47.279Z,97.61
2022-10-05T22:16:15.032Z,98.16
2022-10-05T22:18:42.502Z,97.51
2022-10-05T22:21:12.034Z,97.82
2022-10-05T22:23:43.436Z,99.67
2022-10-05T22:26:12.513Z,99.20
2022-10-05T22:28:40.017Z,98.66
2022-10-05T22:31:09.428Z,98.80
2022-10-05T22:33:36.966Z,99.75
2022-10-05T22:36:05.710Z,100.00
2022-10-05T22:38:32.742Z,98.81
2022-10-05T22:40:59.556Z,99.65
2022-10-05T22:43:27.012Z,100.00
2022-10-05T22:45:54.271Z,100.00
2022-10-05T22:48:20.809Z,100.00
2022-10-05T22:50:47.853Z,100.00
2022-10-05T22:53:14.494Z,100.00
2022-10-05T22:55:40.994Z,100.00
2022-10-05T22:58:07.654Z,100.00
2022-10-05T23:00:56.397Z,100.00
2022-10-05T23:03:20.647Z,100.00
2022-10-05T23:05:47.159Z,100.00
2022-10-05T23:08:13.588Z,100.00
2022-10-05T23:10:40.116Z,100.00
2022-10-05T23:13:08.661Z,100.00
2022-10-05T23:15:35.802Z,100.00
2022-10-05T23:18:02.264Z,100.00
2022-10-05T23:20:29.061Z,100.00
2022-10-05T23:22:55.521Z,100.00
2022-10-05T23:25:22.214Z,100.00
2022-10-05T23:27:48.833Z,100.00
2022-10-05T23:30:15.605Z,99.96
2022-10-05T23:32:44.097Z,100.00
2022-10-05T23:35:12.752Z,99.64
2022-10-05T23:37:44.108Z,99.73
2022-10-05T23:40:13.115Z,100.00
2022-10-05T23:42:40.965Z,100.00
2022-10-05T23:45:10.008Z,100.00
2022-10-05T23:47:36.486Z,100.00
2022-10-05T23:50:04.554Z,100.00
2022-10-05T23:52:31.007Z,100.00
2022-10-05T23:54:57.524Z,100.00
2022-10-05T23:57:24.072Z,100.00
2022-10-05T23:59:50.572Z,100.00
